sensor_id;sensor_type;location;lat;lon;timestamp;P1;durP1;ratioP1;P2;durP2;ratioP2
58338;SDS011;68636;52.704;6.536;2024-01-06T00:01:48;15.77;;;7.18;;
58338;SDS011;68636;52.704;6.536;2024-01-06T00:04:14;14.68;;;7.57;;
58338;SDS011;68636;52.704;6.536;2024-01-06T00:06:40;8.95;;;3.25;;
58338;SDS011;68636;52.704;6.536;2024-01-06T00:09:06;11.35;;;4.85;;
58338;SDS011;68636;52.704;6.536;2024-01-06T00:11:32;14.40;;;7.32;;
58338;SDS011;68636;52.704;6.536;2024-01-06T00:13:58;14.02;;;7.03;;
58338;SDS011;68636;52.704;6.536;2024-01-06T00:16:24;14.15;;;6.43;;
58338;SDS011;68636;52.704;6.536;2024-01-06T00:18:50;14.02;;;7.60;;
58338;SDS011;68636;52.704;6.536;2024-01-06T00:21:16;15.40;;;6.45;;
58338;SDS011;68636;52.704;6.536;2024-01-06T00:23:43;13.98;;;6.38;;
58338;SDS011;68636;52.704;6.536;2024-01-06T00:26:12;14.60;;;7.25;;
58338;SDS011;68636;52.704;6.536;2024-01-06T00:28:41;10.73;;;4.47;;
58338;SDS011;68636;52.704;6.536;2024-01-06T00:31:07;12.65;;;6.30;;
58338;SDS011;68636;52.704;6.536;2024-01-06T00:33:33;13.45;;;7.30;;
58338;SDS011;68636;52.704;6.536;2024-01-06T00:35:59;14.10;;;6.28;;
58338;SDS011;68636;52.704;6.536;2024-01-06T00:38:25;13.75;;;6.40;;
58338;SDS011;68636;52.704;6.536;2024-01-06T00:40:52;14.10;;;6.18;;
58338;SDS011;68636;52.704;6.536;2024-01-06T00:43:18;15.07;;;7.20;;
58338;SDS011;68636;52.704;6.536;2024-01-06T00:45:44;13.68;;;6.13;;
58338;SDS011;68636;52.704;6.536;2024-01-06T00:48:10;13.07;;;5.82;;
58338;SDS011;68636;52.704;6.536;2024-01-06T00:50:36;16.33;;;9.23;;
58338;SDS011;68636;52.704;6.536;2024-01-06T00:53:02;15.73;;;7.78;;
58338;SDS011;68636;52.704;6.536;2024-01-06T00:55:28;15.80;;;7.18;;
58338;SDS011;68636;52.704;6.536;2024-01-06T00:57:54;18.65;;;9.10;;
58338;SDS011;68636;52.704;6.536;2024-01-06T01:00:20;13.20;;;6.05;;
58338;SDS011;68636;52.704;6.536;2024-01-06T01:02:47;18.40;;;11.25;;
58338;SDS011;68636;52.704;6.536;2024-01-06T01:05:13;16.02;;;7.65;;
58338;SDS011;68636;52.704;6.536;2024-01-06T01:07:39;11.73;;;5.57;;
58338;SDS011;68636;52.704;6.536;2024-01-06T01:10:06;13.23;;;6.03;;
58338;SDS011;68636;52.704;6.536;2024-01-06T01:12:32;12.53;;;5.83;;
58338;SDS011;68636;52.704;6.536;2024-01-06T01:14:58;15.00;;;7.20;;
58338;SDS011;68636;52.704;6.536;2024-01-06T01:17:24;16.88;;;8.38;;
58338;SDS011;68636;52.704;6.536;2024-01-06T01:19:50;17.27;;;8.98;;
58338;SDS011;68636;52.704;6.536;2024-01-06T01:22:16;14.95;;;6.95;;
58338;SDS011;68636;52.704;6.536;2024-01-06T01:24:43;16.77;;;7.70;;
58338;SDS011;68636;52.704;6.536;2024-01-06T01:27:09;18.02;;;8.30;;
58338;SDS011;68636;52.704;6.536;2024-01-06T01:29:35;20.52;;;9.73;;
58338;SDS011;68636;52.704;6.536;2024-01-06T01:32:01;22.77;;;12.57;;
58338;SDS011;68636;52.704;6.536;2024-01-06T01:34:27;20.73;;;9.45;;
58338;SDS011;68636;52.704;6.536;2024-01-06T01:36:53;20.65;;;9.73;;
58338;SDS011;68636;52.704;6.536;2024-01-06T01:39:19;22.30;;;11.98;;
58338;SDS011;68636;52.704;6.536;2024-01-06T01:41:45;24.88;;;13.02;;
58338;SDS011;68636;52.704;6.536;2024-01-06T01:44:12;22.92;;;9.73;;
58338;SDS011;68636;52.704;6.536;2024-01-06T01:46:38;22.90;;;9.25;;
58338;SDS011;68636;52.704;6.536;2024-01-06T01:49:04;21.27;;;10.07;;
58338;SDS011;68636;52.704;6.536;2024-01-06T01:51:31;29.98;;;14.63;;
58338;SDS011;68636;52.704;6.536;2024-01-06T01:53:58;25.58;;;11.07;;
58338;SDS011;68636;52.704;6.536;2024-01-06T01:56:25;25.70;;;11.18;;
58338;SDS011;68636;52.704;6.536;2024-01-06T01:58:52;31.50;;;11.88;;
58338;SDS011;68636;52.704;6.536;2024-01-06T02:01:18;28.10;;;10.80;;
58338;SDS011;68636;52.704;6.536;2024-01-06T02:03:45;24.23;;;10.90;;
58338;SDS011;68636;52.704;6.536;2024-01-06T02:06:11;20.97;;;9.97;;
58338;SDS011;68636;52.704;6.536;2024-01-06T02:08:38;23.17;;;9.77;;
58338;SDS011;68636;52.704;6.536;2024-01-06T02:11:04;19.70;;;8.48;;
58338;SDS011;68636;52.704;6.536;2024-01-06T02:13:34;24.63;;;12.15;;
58338;SDS011;68636;52.704;6.536;2024-01-06T02:16:06;23.80;;;7.93;;
58338;SDS011;68636;52.704;6.536;2024-01-06T02:18:32;20.65;;;9.65;;
58338;SDS011;68636;52.704;6.536;2024-01-06T02:20:59;24.92;;;12.80;;
58338;SDS011;68636;52.704;6.536;2024-01-06T02:23:26;19.88;;;8.65;;
58338;SDS011;68636;52.704;6.536;2024-01-06T02:25:52;20.50;;;7.68;;
58338;SDS011;68636;52.704;6.536;2024-01-06T02:28:18;18.75;;;7.70;;
58338;SDS011;68636;52.704;6.536;2024-01-06T02:30:44;22.35;;;10.65;;
58338;SDS011;68636;52.704;6.536;2024-01-06T02:33:10;23.90;;;10.43;;
58338;SDS011;68636;52.704;6.536;2024-01-06T02:35:36;29.60;;;16.38;;
58338;SDS011;68636;52.704;6.536;2024-01-06T02:38:03;22.70;;;9.55;;
58338;SDS011;68636;52.704;6.536;2024-01-06T02:40:29;27.90;;;12.77;;
58338;SDS011;68636;52.704;6.536;2024-01-06T02:42:55;22.85;;;9.50;;
58338;SDS011;68636;52.704;6.536;2024-01-06T02:45:21;27.75;;;15.40;;
58338;SDS011;68636;52.704;6.536;2024-01-06T02:47:47;19.02;;;8.15;;
58338;SDS011;68636;52.704;6.536;2024-01-06T02:50:13;18.70;;;7.93;;
58338;SDS011;68636;52.704;6.536;2024-01-06T02:52:39;16.27;;;6.75;;
58338;SDS011;68636;52.704;6.536;2024-01-06T02:55:06;20.98;;;11.32;;
58338;SDS011;68636;52.704;6.536;2024-01-06T02:57:32;20.75;;;8.68;;
58338;SDS011;68636;52.704;6.536;2024-01-06T02:59:58;25.90;;;12.65;;
58338;SDS011;68636;52.704;6.536;2024-01-06T03:02:24;19.58;;;7.88;;
58338;SDS011;68636;52.704;6.536;2024-01-06T03:04:50;28.20;;;12.50;;
58338;SDS011;68636;52.704;6.536;2024-01-06T03:07:16;30.42;;;12.73;;
58338;SDS011;68636;52.704;6.536;2024-01-06T03:09:43;24.23;;;9.75;;
58338;SDS011;68636;52.704;6.536;2024-01-06T03:12:09;29.90;;;12.38;;
58338;SDS011;68636;52.704;6.536;2024-01-06T03:14:35;25.15;;;9.77;;
58338;SDS011;68636;52.704;6.536;2024-01-06T03:17:01;23.50;;;8.52;;
58338;SDS011;68636;52.704;6.536;2024-01-06T03:19:28;23.77;;;10.20;;
58338;SDS011;68636;52.704;6.536;2024-01-06T03:21:54;16.13;;;6.03;;
58338;SDS011;68636;52.704;6.536;2024-01-06T03:24:24;21.48;;;8.48;;
58338;SDS011;68636;52.704;6.536;2024-01-06T03:26:50;20.48;;;8.77;;
58338;SDS011;68636;52.704;6.536;2024-01-06T03:29:16;19.90;;;8.13;;
58338;SDS011;68636;52.704;6.536;2024-01-06T03:31:43;15.07;;;6.35;;
58338;SDS011;68636;52.704;6.536;2024-01-06T03:34:09;20.33;;;7.53;;
58338;SDS011;68636;52.704;6.536;2024-01-06T03:36:38;16.75;;;7.32;;
58338;SDS011;68636;52.704;6.536;2024-01-06T03:39:06;20.27;;;8.32;;
58338;SDS011;68636;52.704;6.536;2024-01-06T03:41:32;16.58;;;7.35;;
58338;SDS011;68636;52.704;6.536;2024-01-06T03:43:58;18.52;;;7.97;;
58338;SDS011;68636;52.704;6.536;2024-01-06T03:46:24;20.70;;;10.13;;
58338;SDS011;68636;52.704;6.536;2024-01-06T03:48:51;19.60;;;7.67;;
58338;SDS011;68636;52.704;6.536;2024-01-06T03:51:17;24.10;;;10.82;;
58338;SDS011;68636;52.704;6.536;2024-01-06T03:53:43;25.00;;;9.85;;
58338;SDS011;68636;52.704;6.536;2024-01-06T03:56:09;24.08;;;8.73;;
58338;SDS011;68636;52.704;6.536;2024-01-06T03:58:35;27.50;;;12.95;;
58338;SDS011;68636;52.704;6.536;2024-01-06T04:01:01;23.33;;;8.32;;
58338;SDS011;68636;52.704;6.536;2024-01-06T04:03:27;23.33;;;9.80;;
58338;SDS011;68636;52.704;6.536;2024-01-06T04:05:53;30.50;;;13.10;;
58338;SDS011;68636;52.704;6.536;2024-01-06T04:08:19;24.80;;;9.27;;
58338;SDS011;68636;52.704;6.536;2024-01-06T04:10:45;24.23;;;9.90;;
58338;SDS011;68636;52.704;6.536;2024-01-06T04:13:11;22.02;;;7.95;;
58338;SDS011;68636;52.704;6.536;2024-01-06T04:15:38;25.30;;;10.45;;
58338;SDS011;68636;52.704;6.536;2024-01-06T04:18:04;33.13;;;15.55;;
58338;SDS011;68636;52.704;6.536;2024-01-06T04:20:31;27.08;;;10.55;;
58338;SDS011;68636;52.704;6.536;2024-01-06T04:22:57;27.92;;;11.15;;
58338;SDS011;68636;52.704;6.536;2024-01-06T04:25:23;21.38;;;9.07;;
58338;SDS011;68636;52.704;6.536;2024-01-06T04:27:49;30.65;;;12.93;;
58338;SDS011;68636;52.704;6.536;2024-01-06T04:30:16;31.73;;;14.02;;
58338;SDS011;68636;52.704;6.536;2024-01-06T04:32:43;23.90;;;9.93;;
58338;SDS011;68636;52.704;6.536;2024-01-06T04:35:09;32.80;;;15.60;;
58338;SDS011;68636;52.704;6.536;2024-01-06T04:37:35;27.90;;;10.00;;
58338;SDS011;68636;52.704;6.536;2024-01-06T04:40:02;25.25;;;9.07;;
58338;SDS011;68636;52.704;6.536;2024-01-06T04:42:28;29.50;;;11.57;;
58338;SDS011;68636;52.704;6.536;2024-01-06T04:44:55;23.05;;;9.20;;
58338;SDS011;68636;52.704;6.536;2024-01-06T04:47:21;32.45;;;14.75;;
58338;SDS011;68636;52.704;6.536;2024-01-06T04:49:47;23.95;;;8.57;;
58338;SDS011;68636;52.704;6.536;2024-01-06T04:52:13;36.63;;;16.05;;
58338;SDS011;68636;52.704;6.536;2024-01-06T04:54:39;23.60;;;8.90;;
58338;SDS011;68636;52.704;6.536;2024-01-06T04:57:05;24.55;;;9.40;;
58338;SDS011;68636;52.704;6.536;2024-01-06T04:59:31;20.77;;;8.98;;
58338;SDS011;68636;52.704;6.536;2024-01-06T05:01:57;20.98;;;7.55;;
58338;SDS011;68636;52.704;6.536;2024-01-06T05:04:23;33.93;;;10.50;;
58338;SDS011;68636;52.704;6.536;2024-01-06T05:06:51;26.92;;;10.45;;
58338;SDS011;68636;52.704;6.536;2024-01-06T05:11:43;25.17;;;9.52;;
58338;SDS011;68636;52.704;6.536;2024-01-06T05:14:10;26.90;;;10.07;;
58338;SDS011;68636;52.704;6.536;2024-01-06T05:16:36;35.85;;;12.60;;
58338;SDS011;68636;52.704;6.536;2024-01-06T05:19:02;27.63;;;10.48;;
58338;SDS011;68636;52.704;6.536;2024-01-06T05:21:29;26.73;;;10.18;;
58338;SDS011;68636;52.704;6.536;2024-01-06T05:23:55;22.48;;;8.80;;
58338;SDS011;68636;52.704;6.536;2024-01-06T05:26:21;30.60;;;12.15;;
58338;SDS011;68636;52.704;6.536;2024-01-06T05:28:47;26.50;;;10.18;;
58338;SDS011;68636;52.704;6.536;2024-01-06T05:31:13;24.83;;;9.38;;
58338;SDS011;68636;52.704;6.536;2024-01-06T05:33:39;40.85;;;17.55;;
58338;SDS011;68636;52.704;6.536;2024-01-06T05:36:06;36.40;;;15.15;;
58338;SDS011;68636;52.704;6.536;2024-01-06T05:38:32;28.33;;;10.25;;
58338;SDS011;68636;52.704;6.536;2024-01-06T05:40:58;25.25;;;9.27;;
58338;SDS011;68636;52.704;6.536;2024-01-06T05:43:24;29.50;;;9.30;;
58338;SDS011;68636;52.704;6.536;2024-01-06T05:45:50;23.65;;;9.15;;
58338;SDS011;68636;52.704;6.536;2024-01-06T05:48:16;27.85;;;9.70;;
58338;SDS011;68636;52.704;6.536;2024-01-06T05:50:43;23.13;;;7.95;;
58338;SDS011;68636;52.704;6.536;2024-01-06T05:53:09;27.90;;;11.18;;
58338;SDS011;68636;52.704;6.536;2024-01-06T05:55:35;30.55;;;11.43;;
58338;SDS011;68636;52.704;6.536;2024-01-06T05:58:02;36.00;;;13.98;;
58338;SDS011;68636;52.704;6.536;2024-01-06T06:00:28;29.00;;;12.82;;
58338;SDS011;68636;52.704;6.536;2024-01-06T06:02:56;25.63;;;10.38;;
58338;SDS011;68636;52.704;6.536;2024-01-06T06:05:23;31.10;;;11.43;;
58338;SDS011;68636;52.704;6.536;2024-01-06T06:07:49;24.70;;;8.70;;
58338;SDS011;68636;52.704;6.536;2024-01-06T06:10:15;29.65;;;12.05;;
58338;SDS011;68636;52.704;6.536;2024-01-06T06:12:43;28.92;;;10.32;;
58338;SDS011;68636;52.704;6.536;2024-01-06T06:15:09;23.70;;;9.18;;
58338;SDS011;68636;52.704;6.536;2024-01-06T06:17:36;36.63;;;14.40;;
58338;SDS011;68636;52.704;6.536;2024-01-06T06:20:02;32.75;;;10.85;;
58338;SDS011;68636;52.704;6.536;2024-01-06T06:22:28;27.15;;;9.85;;
58338;SDS011;68636;52.704;6.536;2024-01-06T06:24:57;31.08;;;11.98;;
58338;SDS011;68636;52.704;6.536;2024-01-06T06:27:23;27.03;;;9.80;;
58338;SDS011;68636;52.704;6.536;2024-01-06T06:29:50;23.65;;;8.98;;
58338;SDS011;68636;52.704;6.536;2024-01-06T06:32:16;24.75;;;8.40;;
58338;SDS011;68636;52.704;6.536;2024-01-06T06:34:42;25.60;;;9.85;;
58338;SDS011;68636;52.704;6.536;2024-01-06T06:37:08;22.92;;;8.80;;
58338;SDS011;68636;52.704;6.536;2024-01-06T06:39:35;29.35;;;12.45;;
58338;SDS011;68636;52.704;6.536;2024-01-06T06:42:01;22.05;;;8.30;;
58338;SDS011;68636;52.704;6.536;2024-01-06T06:44:28;33.28;;;13.20;;
58338;SDS011;68636;52.704;6.536;2024-01-06T06:46:57;26.55;;;9.05;;
58338;SDS011;68636;52.704;6.536;2024-01-06T06:49:23;26.42;;;9.45;;
58338;SDS011;68636;52.704;6.536;2024-01-06T06:51:49;33.63;;;16.90;;
58338;SDS011;68636;52.704;6.536;2024-01-06T06:54:15;10.68;;;4.72;;
58338;SDS011;68636;52.704;6.536;2024-01-06T06:56:42;30.95;;;15.02;;
58338;SDS011;68636;52.704;6.536;2024-01-06T06:59:08;34.05;;;15.63;;
58338;SDS011;68636;52.704;6.536;2024-01-06T07:01:34;20.38;;;6.50;;
58338;SDS011;68636;52.704;6.536;2024-01-06T07:04:01;25.83;;;9.30;;
58338;SDS011;68636;52.704;6.536;2024-01-06T07:06:27;31.10;;;14.38;;
58338;SDS011;68636;52.704;6.536;2024-01-06T07:08:54;28.75;;;12.02;;
58338;SDS011;68636;52.704;6.536;2024-01-06T07:11:21;19.10;;;7.43;;
58338;SDS011;68636;52.704;6.536;2024-01-06T07:13:47;28.00;;;10.77;;
58338;SDS011;68636;52.704;6.536;2024-01-06T07:16:13;31.00;;;12.60;;
58338;SDS011;68636;52.704;6.536;2024-01-06T07:18:39;34.28;;;12.95;;
58338;SDS011;68636;52.704;6.536;2024-01-06T07:21:05;25.25;;;10.38;;
58338;SDS011;68636;52.704;6.536;2024-01-06T07:23:34;33.75;;;14.88;;
58338;SDS011;68636;52.704;6.536;2024-01-06T07:26:00;24.50;;;9.88;;
58338;SDS011;68636;52.704;6.536;2024-01-06T07:28:26;25.20;;;11.15;;
58338;SDS011;68636;52.704;6.536;2024-01-06T07:30:52;21.95;;;8.82;;
58338;SDS011;68636;52.704;6.536;2024-01-06T07:33:20;20.45;;;6.53;;
58338;SDS011;68636;52.704;6.536;2024-01-06T07:35:46;24.75;;;10.10;;
58338;SDS011;68636;52.704;6.536;2024-01-06T07:38:12;21.92;;;9.00;;
58338;SDS011;68636;52.704;6.536;2024-01-06T07:40:39;26.40;;;11.32;;
58338;SDS011;68636;52.704;6.536;2024-01-06T07:43:09;22.85;;;9.25;;
58338;SDS011;68636;52.704;6.536;2024-01-06T07:45:40;23.83;;;9.02;;
58338;SDS011;68636;52.704;6.536;2024-01-06T07:48:06;27.47;;;13.23;;
58338;SDS011;68636;52.704;6.536;2024-01-06T07:50:32;23.60;;;8.85;;
58338;SDS011;68636;52.704;6.536;2024-01-06T07:52:59;24.50;;;11.73;;
58338;SDS011;68636;52.704;6.536;2024-01-06T07:55:27;22.00;;;7.57;;
58338;SDS011;68636;52.704;6.536;2024-01-06T07:57:54;18.30;;;9.95;;
58338;SDS011;68636;52.704;6.536;2024-01-06T08:00:20;18.85;;;8.18;;
58338;SDS011;68636;52.704;6.536;2024-01-06T08:02:46;24.52;;;9.07;;
58338;SDS011;68636;52.704;6.536;2024-01-06T08:05:12;23.67;;;10.57;;
58338;SDS011;68636;52.704;6.536;2024-01-06T08:07:38;17.13;;;8.23;;
58338;SDS011;68636;52.704;6.536;2024-01-06T08:10:05;22.58;;;10.93;;
58338;SDS011;68636;52.704;6.536;2024-01-06T08:12:31;25.45;;;13.55;;
58338;SDS011;68636;52.704;6.536;2024-01-06T08:14:57;18.05;;;8.00;;
58338;SDS011;68636;52.704;6.536;2024-01-06T08:17:23;24.95;;;13.77;;
58338;SDS011;68636;52.704;6.536;2024-01-06T08:19:49;22.00;;;9.70;;
58338;SDS011;68636;52.704;6.536;2024-01-06T08:22:16;17.35;;;6.05;;
58338;SDS011;68636;52.704;6.536;2024-01-06T08:24:42;20.90;;;10.05;;
58338;SDS011;68636;52.704;6.536;2024-01-06T08:27:08;21.70;;;13.27;;
58338;SDS011;68636;52.704;6.536;2024-01-06T08:29:34;19.33;;;8.13;;
58338;SDS011;68636;52.704;6.536;2024-01-06T08:32:00;19.60;;;8.45;;
58338;SDS011;68636;52.704;6.536;2024-01-06T08:34:26;17.60;;;8.80;;
58338;SDS011;68636;52.704;6.536;2024-01-06T08:36:52;18.55;;;6.95;;
58338;SDS011;68636;52.704;6.536;2024-01-06T08:39:19;17.30;;;8.68;;
58338;SDS011;68636;52.704;6.536;2024-01-06T08:41:46;18.70;;;8.35;;
58338;SDS011;68636;52.704;6.536;2024-01-06T08:44:13;18.88;;;8.45;;
58338;SDS011;68636;52.704;6.536;2024-01-06T08:46:39;18.63;;;7.95;;
58338;SDS011;68636;52.704;6.536;2024-01-06T08:49:05;18.40;;;7.90;;
58338;SDS011;68636;52.704;6.536;2024-01-06T08:51:31;17.55;;;9.43;;
58338;SDS011;68636;52.704;6.536;2024-01-06T08:53:57;14.95;;;9.52;;
58338;SDS011;68636;52.704;6.536;2024-01-06T08:56:23;16.20;;;7.10;;
58338;SDS011;68636;52.704;6.536;2024-01-06T08:58:50;16.67;;;8.15;;
58338;SDS011;68636;52.704;6.536;2024-01-06T09:01:16;14.63;;;8.20;;
58338;SDS011;68636;52.704;6.536;2024-01-06T09:03:42;10.25;;;4.60;;
58338;SDS011;68636;52.704;6.536;2024-01-06T09:06:08;16.98;;;8.25;;
58338;SDS011;68636;52.704;6.536;2024-01-06T09:08:34;14.57;;;6.88;;
58338;SDS011;68636;52.704;6.536;2024-01-06T09:11:00;14.90;;;6.70;;
58338;SDS011;68636;52.704;6.536;2024-01-06T09:13:27;13.90;;;6.68;;
58338;SDS011;68636;52.704;6.536;2024-01-06T09:15:53;12.48;;;5.20;;
58338;SDS011;68636;52.704;6.536;2024-01-06T09:18:19;13.60;;;5.88;;
58338;SDS011;68636;52.704;6.536;2024-01-06T09:20:46;15.13;;;8.27;;
58338;SDS011;68636;52.704;6.536;2024-01-06T09:23:15;13.85;;;6.90;;
58338;SDS011;68636;52.704;6.536;2024-01-06T09:25:42;13.45;;;6.15;;
58338;SDS011;68636;52.704;6.536;2024-01-06T09:28:08;14.13;;;6.78;;
58338;SDS011;68636;52.704;6.536;2024-01-06T09:30:35;16.58;;;8.10;;
58338;SDS011;68636;52.704;6.536;2024-01-06T09:33:02;12.52;;;6.07;;
58338;SDS011;68636;52.704;6.536;2024-01-06T09:35:28;16.55;;;7.55;;
58338;SDS011;68636;52.704;6.536;2024-01-06T09:37:54;13.18;;;7.15;;
58338;SDS011;68636;52.704;6.536;2024-01-06T09:40:21;14.38;;;6.28;;
58338;SDS011;68636;52.704;6.536;2024-01-06T09:42:51;13.07;;;6.22;;
58338;SDS011;68636;52.704;6.536;2024-01-06T09:45:19;13.35;;;6.03;;
58338;SDS011;68636;52.704;6.536;2024-01-06T09:47:49;16.20;;;9.52;;
58338;SDS011;68636;52.704;6.536;2024-01-06T09:50:19;14.93;;;8.32;;
58338;SDS011;68636;52.704;6.536;2024-01-06T09:52:46;17.33;;;8.50;;
58338;SDS011;68636;52.704;6.536;2024-01-06T09:55:19;16.42;;;7.20;;
58338;SDS011;68636;52.704;6.536;2024-01-06T09:57:48;15.52;;;7.13;;
58338;SDS011;68636;52.704;6.536;2024-01-06T10:00:14;16.10;;;7.72;;
58338;SDS011;68636;52.704;6.536;2024-01-06T10:02:40;14.50;;;6.78;;
58338;SDS011;68636;52.704;6.536;2024-01-06T10:05:08;15.93;;;7.43;;
58338;SDS011;68636;52.704;6.536;2024-01-06T10:07:35;17.45;;;7.95;;
58338;SDS011;68636;52.704;6.536;2024-01-06T10:10:01;17.95;;;8.60;;
58338;SDS011;68636;52.704;6.536;2024-01-06T10:12:28;17.55;;;10.25;;
58338;SDS011;68636;52.704;6.536;2024-01-06T10:14:54;16.60;;;7.05;;
58338;SDS011;68636;52.704;6.536;2024-01-06T10:17:20;13.88;;;6.38;;
58338;SDS011;68636;52.704;6.536;2024-01-06T10:19:46;12.30;;;5.45;;
58338;SDS011;68636;52.704;6.536;2024-01-06T10:22:17;18.52;;;11.63;;
58338;SDS011;68636;52.704;6.536;2024-01-06T10:24:44;14.40;;;6.45;;
58338;SDS011;68636;52.704;6.536;2024-01-06T10:27:10;12.85;;;6.25;;
58338;SDS011;68636;52.704;6.536;2024-01-06T10:29:36;12.52;;;5.25;;
58338;SDS011;68636;52.704;6.536;2024-01-06T10:32:02;14.35;;;6.90;;
58338;SDS011;68636;52.704;6.536;2024-01-06T10:34:28;14.55;;;6.72;;
58338;SDS011;68636;52.704;6.536;2024-01-06T10:36:57;14.23;;;6.95;;
58338;SDS011;68636;52.704;6.536;2024-01-06T10:39:23;15.27;;;6.53;;
58338;SDS011;68636;52.704;6.536;2024-01-06T10:41:49;15.38;;;5.97;;
58338;SDS011;68636;52.704;6.536;2024-01-06T10:44:16;14.13;;;6.18;;
58338;SDS011;68636;52.704;6.536;2024-01-06T10:46:44;14.45;;;6.53;;
58338;SDS011;68636;52.704;6.536;2024-01-06T10:51:37;16.95;;;8.30;;
58338;SDS011;68636;52.704;6.536;2024-01-06T10:54:03;15.88;;;7.00;;
58338;SDS011;68636;52.704;6.536;2024-01-06T10:56:31;17.77;;;11.07;;
58338;SDS011;68636;52.704;6.536;2024-01-06T10:59:01;18.20;;;10.30;;
58338;SDS011;68636;52.704;6.536;2024-01-06T11:01:29;16.45;;;7.32;;
58338;SDS011;68636;52.704;6.536;2024-01-06T11:03:55;13.90;;;5.78;;
58338;SDS011;68636;52.704;6.536;2024-01-06T11:06:21;15.43;;;6.65;;
58338;SDS011;68636;52.704;6.536;2024-01-06T11:08:50;14.68;;;6.95;;
58338;SDS011;68636;52.704;6.536;2024-01-06T11:11:17;15.98;;;7.45;;
58338;SDS011;68636;52.704;6.536;2024-01-06T11:13:44;11.15;;;4.72;;
58338;SDS011;68636;52.704;6.536;2024-01-06T11:16:12;14.15;;;6.68;;
58338;SDS011;68636;52.704;6.536;2024-01-06T11:18:58;17.30;;;10.35;;
58338;SDS011;68636;52.704;6.536;2024-01-06T11:21:24;12.25;;;5.90;;
58338;SDS011;68636;52.704;6.536;2024-01-06T11:24:04;14.15;;;6.72;;
58338;SDS011;68636;52.704;6.536;2024-01-06T11:26:31;14.32;;;7.10;;
58338;SDS011;68636;52.704;6.536;2024-01-06T11:28:57;17.13;;;8.23;;
58338;SDS011;68636;52.704;6.536;2024-01-06T11:31:25;18.25;;;7.88;;
58338;SDS011;68636;52.704;6.536;2024-01-06T11:33:54;13.00;;;5.88;;
58338;SDS011;68636;52.704;6.536;2024-01-06T11:36:21;9.95;;;4.50;;
58338;SDS011;68636;52.704;6.536;2024-01-06T11:38:47;15.47;;;7.13;;
58338;SDS011;68636;52.704;6.536;2024-01-06T11:44:00;15.30;;;6.95;;
58338;SDS011;68636;52.704;6.536;2024-01-06T11:46:26;18.80;;;8.45;;
58338;SDS011;68636;52.704;6.536;2024-01-06T11:48:52;13.35;;;5.68;;
58338;SDS011;68636;52.704;6.536;2024-01-06T11:51:19;17.98;;;10.68;;
58338;SDS011;68636;52.704;6.536;2024-01-06T11:53:45;15.75;;;8.93;;
58338;SDS011;68636;52.704;6.536;2024-01-06T11:56:11;17.17;;;7.50;;
58338;SDS011;68636;52.704;6.536;2024-01-06T11:58:40;11.70;;;5.32;;
58338;SDS011;68636;52.704;6.536;2024-01-06T12:01:07;15.88;;;8.20;;
58338;SDS011;68636;52.704;6.536;2024-01-06T12:03:33;16.52;;;8.02;;
58338;SDS011;68636;52.704;6.536;2024-01-06T12:06:00;17.90;;;7.80;;
58338;SDS011;68636;52.704;6.536;2024-01-06T12:08:27;17.10;;;8.13;;
58338;SDS011;68636;52.704;6.536;2024-01-06T12:11:03;18.80;;;10.43;;
58338;SDS011;68636;52.704;6.536;2024-01-06T12:13:31;16.15;;;7.60;;
58338;SDS011;68636;52.704;6.536;2024-01-06T12:15:57;19.90;;;13.87;;
58338;SDS011;68636;52.704;6.536;2024-01-06T12:18:23;17.38;;;9.73;;
58338;SDS011;68636;52.704;6.536;2024-01-06T12:23:23;17.83;;;8.10;;
58338;SDS011;68636;52.704;6.536;2024-01-06T12:25:49;16.27;;;7.55;;
58338;SDS011;68636;52.704;6.536;2024-01-06T12:28:15;16.15;;;7.32;;
58338;SDS011;68636;52.704;6.536;2024-01-06T12:30:41;20.08;;;9.15;;
58338;SDS011;68636;52.704;6.536;2024-01-06T12:33:10;20.52;;;8.20;;
58338;SDS011;68636;52.704;6.536;2024-01-06T12:35:36;18.13;;;8.15;;
58338;SDS011;68636;52.704;6.536;2024-01-06T12:38:03;18.92;;;9.23;;
58338;SDS011;68636;52.704;6.536;2024-01-06T12:40:35;17.65;;;9.73;;
58338;SDS011;68636;52.704;6.536;2024-01-06T12:43:03;22.33;;;14.65;;
58338;SDS011;68636;52.704;6.536;2024-01-06T12:45:29;15.70;;;7.07;;
58338;SDS011;68636;52.704;6.536;2024-01-06T12:47:55;20.13;;;8.73;;
58338;SDS011;68636;52.704;6.536;2024-01-06T12:50:21;19.00;;;8.52;;
58338;SDS011;68636;52.704;6.536;2024-01-06T12:52:47;18.88;;;9.52;;
58338;SDS011;68636;52.704;6.536;2024-01-06T12:55:13;19.63;;;8.55;;
58338;SDS011;68636;52.704;6.536;2024-01-06T12:57:41;19.40;;;9.15;;
58338;SDS011;68636;52.704;6.536;2024-01-06T13:00:08;18.52;;;9.98;;
58338;SDS011;68636;52.704;6.536;2024-01-06T13:02:37;15.98;;;6.93;;
58338;SDS011;68636;52.704;6.536;2024-01-06T13:05:03;22.70;;;11.20;;
58338;SDS011;68636;52.704;6.536;2024-01-06T13:07:29;22.38;;;12.75;;
58338;SDS011;68636;52.704;6.536;2024-01-06T13:09:56;23.70;;;11.93;;
58338;SDS011;68636;52.704;6.536;2024-01-06T13:12:22;20.75;;;10.07;;
58338;SDS011;68636;52.704;6.536;2024-01-06T13:14:49;21.00;;;10.50;;
58338;SDS011;68636;52.704;6.536;2024-01-06T13:17:16;23.10;;;11.90;;
58338;SDS011;68636;52.704;6.536;2024-01-06T13:19:42;20.13;;;9.73;;
58338;SDS011;68636;52.704;6.536;2024-01-06T13:22:09;18.90;;;7.85;;
58338;SDS011;68636;52.704;6.536;2024-01-06T13:24:35;24.20;;;9.13;;
58338;SDS011;68636;52.704;6.536;2024-01-06T13:27:01;22.67;;;9.57;;
58338;SDS011;68636;52.704;6.536;2024-01-06T13:29:28;23.40;;;9.80;;
58338;SDS011;68636;52.704;6.536;2024-01-06T13:31:55;22.90;;;14.43;;
58338;SDS011;68636;52.704;6.536;2024-01-06T13:36:48;25.13;;;13.43;;
58338;SDS011;68636;52.704;6.536;2024-01-06T13:39:14;26.58;;;14.85;;
58338;SDS011;68636;52.704;6.536;2024-01-06T13:41:48;24.30;;;11.80;;
58338;SDS011;68636;52.704;6.536;2024-01-06T13:44:15;18.40;;;9.48;;
58338;SDS011;68636;52.704;6.536;2024-01-06T13:46:41;22.47;;;10.13;;
58338;SDS011;68636;52.704;6.536;2024-01-06T13:49:12;21.08;;;9.35;;
58338;SDS011;68636;52.704;6.536;2024-01-06T13:51:39;20.50;;;9.45;;
58338;SDS011;68636;52.704;6.536;2024-01-06T13:54:05;25.05;;;11.60;;
58338;SDS011;68636;52.704;6.536;2024-01-06T13:56:31;23.27;;;11.10;;
58338;SDS011;68636;52.704;6.536;2024-01-06T13:58:57;25.40;;;10.95;;
58338;SDS011;68636;52.704;6.536;2024-01-06T14:01:24;23.10;;;11.80;;
58338;SDS011;68636;52.704;6.536;2024-01-06T14:03:50;26.47;;;12.00;;
58338;SDS011;68636;52.704;6.536;2024-01-06T14:06:23;28.00;;;15.85;;
58338;SDS011;68636;52.704;6.536;2024-01-06T14:08:49;26.67;;;11.43;;
58338;SDS011;68636;52.704;6.536;2024-01-06T14:11:18;24.10;;;10.65;;
58338;SDS011;68636;52.704;6.536;2024-01-06T14:13:44;28.23;;;13.77;;
58338;SDS011;68636;52.704;6.536;2024-01-06T14:16:13;25.50;;;10.60;;
58338;SDS011;68636;52.704;6.536;2024-01-06T14:18:40;24.00;;;8.88;;
58338;SDS011;68636;52.704;6.536;2024-01-06T14:21:08;26.02;;;11.88;;
58338;SDS011;68636;52.704;6.536;2024-01-06T14:23:35;22.85;;;9.75;;
58338;SDS011;68636;52.704;6.536;2024-01-06T14:26:01;24.55;;;11.02;;
58338;SDS011;68636;52.704;6.536;2024-01-06T14:28:28;28.00;;;12.60;;
58338;SDS011;68636;52.704;6.536;2024-01-06T14:30:55;25.30;;;10.38;;
58338;SDS011;68636;52.704;6.536;2024-01-06T14:33:21;22.58;;;9.55;;
58338;SDS011;68636;52.704;6.536;2024-01-06T14:35:48;24.98;;;11.07;;
58338;SDS011;68636;52.704;6.536;2024-01-06T14:38:14;30.40;;;13.52;;
58338;SDS011;68636;52.704;6.536;2024-01-06T14:40:40;22.48;;;10.15;;